Time;durP1;ratioP1;P1;durP2;ratioP2;P2;SDS_P1;SDS_P2;PMS_P1;PMS_P2;Temp;Humidity;BMP_temperature;BMP_pressure;BME280_temperature;BME280_humidity;BME280_pressure;Samples;Min_cycle;Max_cycle;Signal;HPM_P1;HPM_P2
2021/05/04 00:00:57;;;;;;;4.40;2.93;;;14.00;80.70;21.40;99686.00;;;;5015258;28;20193;-71
2021/05/04 00:03:23;;;;;;;4.63;3.07;;;14.00;80.70;21.30;99683.00;;;;5049932;28;20855;-70
2021/05/04 00:05:48;;;;;;;4.73;2.60;;;14.00;80.50;21.50;99665.00;;;;5047954;28;20188;-72
2021/05/04 00:08:14;;;;;;;5.10;3.10;;;14.00;80.60;21.70;99669.00;;;;5048518;28;20470;-70
2021/05/04 00:10:40;;;;;;;4.33;2.50;;;13.90;81.30;21.50;99644.00;;;;5049630;28;20261;-70
2021/05/04 00:13:06;;;;;;;4.60;2.90;;;13.90;80.50;21.60;99670.00;;;;5048261;28;20194;-70
2021/05/04 00:15:31;;;;;;;5.73;3.00;;;13.90;80.70;21.50;99668.00;;;;5049517;28;20439;-70
2021/05/04 00:17:57;;;;;;;3.90;2.37;;;13.90;80.60;21.70;99656.00;;;;5049562;28;20684;-69
2021/05/04 00:20:23;;;;;;;4.37;2.80;;;13.90;80.70;21.50;99664.00;;;;5015395;28;20389;-69
2021/05/04 00:22:49;;;;;;;4.70;3.17;;;13.90;80.50;21.50;99659.00;;;;5048666;28;20206;-70
2021/05/04 00:25:14;;;;;;;4.40;3.00;;;13.90;80.70;21.50;99660.00;;;;5048868;28;20182;-70
2021/05/04 00:27:40;;;;;;;4.50;2.97;;;13.90;80.70;21.50;99655.00;;;;5015354;28;20218;-70
2021/05/04 00:30:07;;;;;;;4.40;2.80;;;13.90;80.70;21.50;99655.00;;;;5049828;28;20225;-71
2021/05/04 00:32:32;;;;;;;4.20;2.73;;;13.90;80.70;21.40;99658.00;;;;5049538;28;20748;-70
2021/05/04 00:34:58;;;;;;;3.93;2.53;;;13.90;80.70;21.40;99653.00;;;;5031808;28;20455;-70
2021/05/04 00:37:24;;;;;;;4.30;2.70;;;13.90;80.60;21.50;99654.00;;;;5048393;28;20198;-70
2021/05/04 00:39:49;;;;;;;4.10;2.63;;;13.90;80.70;21.50;99644.00;;;;5048080;28;20213;-70
2021/05/04 00:42:15;;;;;;;4.30;3.00;;;13.90;80.70;21.50;99649.00;;;;5031246;28;20720;-71
2021/05/04 00:44:41;;;;;;;4.00;2.70;;;13.90;80.70;21.30;99640.00;;;;5048023;28;20186;-71
2021/05/04 00:47:06;;;;;;;4.27;2.90;;;13.90;80.80;21.20;99642.00;;;;5049350;28;20221;-70
2021/05/04 00:49:32;;;;;;;4.80;3.27;;;13.80;80.60;21.30;99632.00;;;;5047281;28;20186;-71
2021/05/04 00:51:58;;;;;;;4.50;2.90;;;13.80;80.60;21.30;99634.00;;;;5048010;28;20202;-70
2021/05/04 00:54:24;;;;;;;4.37;2.77;;;13.80;80.60;21.40;99628.00;;;;5031714;28;20607;-72
2021/05/04 00:56:54;;;;;;;4.73;3.27;;;13.80;80.60;21.30;99632.00;;;;5014865;28;20292;-70
2021/05/04 00:59:24;;;;;;;4.77;3.27;;;13.80;80.70;21.30;99613.00;;;;5047846;28;20450;-71
2021/05/04 01:01:53;;;;;;;4.23;2.73;;;13.80;80.70;21.20;99612.00;;;;5029106;28;20438;-70
2021/05/04 01:04:19;;;;;;;4.40;2.63;;;13.80;80.70;21.20;99613.00;;;;5063158;28;20443;-70
2021/05/04 01:06:45;;;;;;;4.20;2.60;;;13.80;80.60;21.20;99609.00;;;;5054692;28;20536;-70
2021/05/04 01:09:14;;;;;;;4.57;2.63;;;13.80;80.60;21.20;99609.00;;;;5071148;28;20417;-70
2021/05/04 01:11:41;;;;;;;4.60;3.20;;;13.80;80.70;21.30;99609.00;;;;5054743;28;20234;-69
2021/05/04 01:14:07;;;;;;;4.50;2.93;;;13.80;80.70;21.10;99597.00;;;;5053980;28;20438;-69
2021/05/04 01:16:33;;;;;;;4.73;3.10;;;13.70;80.60;21.30;99602.00;;;;5054210;28;20410;-70
2021/05/04 01:18:59;;;;;;;4.50;3.00;;;13.80;80.60;21.20;99601.00;;;;5054789;28;20431;-71
2021/05/04 01:21:24;;;;;;;4.30;2.97;;;13.70;80.50;21.10;99605.00;;;;5054528;28;20743;-70
2021/05/04 01:23:50;;;;;;;4.33;2.87;;;13.70;80.50;21.30;99614.00;;;;5071215;28;20180;-70
2021/05/04 01:26:16;;;;;;;5.10;3.00;;;13.70;80.60;21.20;99597.00;;;;5071436;28;20654;-70
2021/05/04 01:28:42;;;;;;;7.30;3.30;;;13.80;80.70;21.10;99598.00;;;;5054564;28;20193;-71
2021/05/04 01:31:07;;;;;;;4.40;3.00;;;13.70;80.60;21.00;99596.00;;;;5070583;28;20186;-71
2021/05/04 01:33:33;;;;;;;4.53;3.17;;;13.70;80.50;21.30;99598.00;;;;5071213;28;20798;-71
2021/05/04 01:36:00;;;;;;;5.10;3.60;;;13.70;80.60;21.20;99583.00;;;;5054342;28;20221;-70
2021/05/04 01:38:26;;;;;;;5.10;3.70;;;13.70;80.50;21.00;99580.00;;;;5054535;28;20212;-70
2021/05/04 01:40:52;;;;;;;5.27;3.50;;;13.70;80.50;21.20;99590.00;;;;5070764;28;20406;-70
2021/05/04 01:43:18;;;;;;;4.80;3.20;;;13.70;80.70;21.00;99584.00;;;;5070846;28;20278;-70
2021/05/04 01:45:43;;;;;;;4.53;2.90;;;13.70;80.60;21.20;99575.00;;;;5072162;28;20182;-71
2021/05/04 01:48:09;;;;;;;4.47;3.07;;;13.70;80.60;21.30;99589.00;;;;5071117;28;20224;-70
2021/05/04 01:50:35;;;;;;;4.23;2.67;;;13.70;80.40;21.00;99577.00;;;;5071037;28;20177;-70
2021/05/04 01:53:01;;;;;;;4.30;3.00;;;13.60;80.40;21.00;99564.00;;;;5070280;28;20208;-70
2021/05/04 01:55:26;;;;;;;4.80;3.47;;;13.70;80.60;21.10;99568.00;;;;5072290;28;20190;-70
2021/05/04 01:57:52;;;;;;;4.80;3.30;;;13.70;80.70;21.10;99564.00;;;;5054324;28;20197;-70
2021/05/04 02:00:18;;;;;;;4.80;3.57;;;13.70;80.60;21.10;99535.00;;;;5053979;28;20592;-70
2021/05/04 02:02:44;;;;;;;4.77;3.40;;;13.70;80.60;21.20;99532.00;;;;5053628;28;20209;-70
2021/05/04 02:05:11;;;;;;;4.80;3.00;;;13.70;80.60;21.20;99547.00;;;;5054056;28;20413;-70
2021/05/04 02:07:41;;;;;;;4.53;3.23;;;13.60;80.40;21.10;99551.00;;;;5070214;28;20248;-71
2021/05/04 02:10:08;;;;;;;6.40;3.97;;;13.60;80.50;21.00;99550.00;;;;5037472;28;20426;-72
2021/05/04 02:12:34;;;;;;;4.80;3.77;;;13.60;80.50;21.20;99545.00;;;;5070490;28;20477;-70
2021/05/04 02:14:59;;;;;;;4.40;3.23;;;13.60;80.50;20.90;99546.00;;;;5070628;28;20945;-70
2021/05/04 02:17:25;;;;;;;4.30;3.13;;;13.60;80.30;20.90;99528.00;;;;5070336;28;20683;-71
2021/05/04 02:19:51;;;;;;;5.13;3.53;;;13.60;80.40;20.80;99534.00;;;;5069940;28;20410;-71
2021/05/04 02:22:17;;;;;;;4.77;3.50;;;13.60;80.50;20.90;99523.00;;;;5053701;28;20227;-71
2021/05/04 02:24:43;;;;;;;4.63;3.33;;;13.60;80.50;21.20;99520.00;;;;5070203;28;20900;-70
2021/05/04 02:27:08;;;;;;;4.53;3.30;;;13.60;80.50;21.10;99514.00;;;;5069825;28;20217;-70
2021/05/04 02:29:34;;;;;;;4.67;3.30;;;13.60;80.50;21.00;99507.00;;;;5071653;28;20188;-70
2021/05/04 02:32:00;;;;;;;4.80;3.50;;;13.60;80.50;20.80;99503.00;;;;5053215;28;20663;-70
2021/05/04 02:34:25;;;;;;;4.50;3.13;;;13.60;80.50;20.90;99511.00;;;;5053238;28;20184;-70
2021/05/04 02:36:51;;;;;;;4.60;3.30;;;13.60;80.50;20.90;99512.00;;;;5053736;28;20236;-70
2021/05/04 02:39:17;;;;;;;5.20;3.47;;;13.60;80.30;21.20;99516.00;;;;5070126;28;20535;-70
2021/05/04 02:41:42;;;;;;;5.80;3.90;;;13.50;80.40;20.80;99508.00;;;;5069828;28;20218;-70
2021/05/04 02:44:08;;;;;;;4.77;3.43;;;13.50;80.30;20.90;99509.00;;;;5071380;28;20188;-70
2021/05/04 02:46:35;;;;;;;4.73;3.50;;;13.50;80.90;20.90;99505.00;;;;5070799;28;20199;-70
2021/05/04 02:49:01;;;;;;;5.00;3.60;;;13.50;80.40;20.80;99492.00;;;;5036463;28;20177;-71
2021/05/04 02:51:26;;;;;;;4.87;3.50;;;13.50;80.50;21.00;99493.00;;;;5053149;28;20411;-70
2021/05/04 02:53:52;;;;;;;4.67;3.37;;;13.50;80.40;20.80;99486.00;;;;5069788;28;20957;-70
2021/05/04 02:56:18;;;;;;;5.83;3.43;;;13.50;80.20;20.80;99479.00;;;;5053112;28;20180;-71
2021/05/04 02:58:44;;;;;;;5.20;3.80;;;13.50;80.30;20.90;99471.00;;;;5052655;28;20554;-70
2021/05/04 03:01:10;;;;;;;5.00;3.37;;;13.50;80.40;20.80;99463.00;;;;5052902;28;20390;-71
2021/05/04 03:03:36;;;;;;;5.30;3.70;;;13.50;80.40;20.90;99472.00;;;;5069757;28;20273;-70
2021/05/04 03:06:03;;;;;;;4.90;3.53;;;13.50;80.30;20.80;99454.00;;;;5053255;28;20707;-70
2021/05/04 03:08:30;;;;;;;5.23;3.50;;;13.50;80.50;20.80;99452.00;;;;5069335;28;20453;-71
2021/05/04 03:10:56;;;;;;;4.33;3.23;;;13.50;80.40;20.90;99423.00;;;;5052716;28;20432;-71
2021/05/04 03:13:26;;;;;;;5.13;3.50;;;13.50;80.40;21.00;99456.00;;;;5036088;28;20972;-70
2021/05/04 03:15:51;;;;;;;5.30;3.90;;;13.50;80.40;21.10;99455.00;;;;5052945;28;20435;-70
2021/05/04 03:18:17;;;;;;;5.63;3.73;;;13.50;80.60;20.80;99449.00;;;;5052897;28;21023;-70
2021/05/04 03:20:44;;;;;;;5.10;3.50;;;13.40;80.40;21.00;99443.00;;;;5069450;28;20402;-70
2021/05/04 03:23:09;;;;;;;5.40;4.17;;;13.40;80.30;20.80;99442.00;;;;5070283;28;20258;-70
2021/05/04 03:25:35;;;;;;;5.27;3.90;;;13.40;80.20;20.90;99431.00;;;;5052699;28;20900;-71
2021/05/04 03:28:01;;;;;;;4.80;3.33;;;13.40;80.30;20.80;99432.00;;;;5051832;28;20711;-70
2021/05/04 03:30:27;;;;;;;4.47;3.30;;;13.40;80.30;20.90;99426.00;;;;5051831;28;20208;-71
2021/05/04 03:32:53;;;;;;;4.60;3.77;;;13.40;80.30;21.00;99426.00;;;;5069073;28;20193;-70
2021/05/04 03:35:19;;;;;;;5.30;4.10;;;13.40;80.30;20.90;99413.00;;;;5052384;28;20248;-70
2021/05/04 03:37:48;;;;;;;5.47;4.17;;;13.40;80.30;21.00;99418.00;;;;5035015;28;20459;-71
2021/05/04 03:40:14;;;;;;;6.13;4.40;;;13.40;80.40;20.80;99412.00;;;;5068972;28;20462;-70
2021/05/04 03:42:40;;;;;;;5.70;4.40;;;13.40;80.30;20.80;99421.00;;;;5035396;28;20501;-71
2021/05/04 03:45:07;;;;;;;5.80;4.00;;;13.40;80.40;21.00;99410.00;;;;5051724;28;20447;-71
2021/05/04 03:47:32;;;;;;;5.67;4.13;;;13.40;80.30;20.90;99405.00;;;;5019113;28;20701;-71
2021/05/04 03:49:58;;;;;;;5.40;4.23;;;13.40;80.30;21.00;99410.00;;;;5068635;28;20406;-70
2021/05/04 03:52:24;;;;;;;6.20;4.10;;;13.30;80.10;21.10;99412.00;;;;5051852;28;20210;-70
2021/05/04 03:54:50;;;;;;;5.40;4.10;;;13.30;80.30;20.90;99402.00;;;;5051834;28;20496;-71
2021/05/04 03:57:15;;;;;;;4.93;3.50;;;13.30;80.40;20.80;99405.00;;;;5034790;28;20201;-71
2021/05/04 03:59:41;;;;;;;5.67;4.20;;;13.30;80.30;20.80;99408.00;;;;5069116;28;20181;-71
2021/05/04 04:02:07;;;;;;;4.80;3.87;;;13.30;80.20;20.80;99408.00;;;;5068934;28;20236;-70
2021/05/04 04:04:32;;;;;;;5.13;4.07;;;13.30;80.10;20.80;99408.00;;;;5069507;28;20338;-70
2021/05/04 04:06:58;;;;;;;4.90;4.10;;;13.30;80.10;20.70;99403.00;;;;5069570;28;20680;-70
2021/05/04 04:09:24;;;;;;;5.70;4.40;;;13.30;80.20;20.70;99396.00;;;;5068247;28;20300;-71
2021/05/04 04:11:49;;;;;;;4.90;3.60;;;13.30;80.20;20.80;99394.00;;;;5051457;28;20200;-71
2021/05/04 04:14:15;;;;;;;7.93;4.43;;;13.30;80.10;20.80;99400.00;;;;5068560;28;20179;-71
2021/05/04 04:16:41;;;;;;;5.50;4.27;;;13.30;80.10;20.80;99390.00;;;;5067721;28;20174;-71
2021/05/04 04:19:08;;;;;;;5.80;4.20;;;13.30;80.20;20.70;99397.00;;;;5068063;28;20189;-71
2021/05/04 04:21:34;;;;;;;5.30;4.00;;;13.30;80.30;20.60;99372.00;;;;5068358;28;20188;-70
2021/05/04 04:24:02;;;;;;;5.20;4.10;;;13.30;80.30;20.70;99386.00;;;;5051791;28;20956;-71
2021/05/04 04:26:28;;;;;;;5.03;3.70;;;13.30;80.20;20.80;99380.00;;;;5051549;28;20410;-71
2021/05/04 04:28:54;;;;;;;5.90;4.10;;;13.30;80.30;20.80;99380.00;;;;5068690;28;20438;-71
2021/05/04 04:31:19;;;;;;;6.73;5.00;;;13.30;80.20;20.60;99384.00;;;;5034548;28;20299;-71
2021/05/04 04:33:45;;;;;;;5.13;4.00;;;13.30;80.20;20.60;99380.00;;;;5051275;28;20200;-70
2021/05/04 04:36:11;;;;;;;5.13;3.67;;;13.30;80.00;20.90;99379.00;;;;5069663;28;20231;-69
2021/05/04 04:38:37;;;;;;;5.63;4.10;;;13.30;80.20;20.70;99375.00;;;;5068345;28;20554;-70
2021/05/04 04:41:02;;;;;;;5.60;4.00;;;13.30;80.30;21.00;99371.00;;;;5071659;28;20271;-69
2021/05/04 04:43:28;;;;;;;5.50;4.37;;;13.30;80.30;20.60;99369.00;;;;5055897;28;20239;-69
2021/05/04 04:45:54;;;;;;;5.63;4.20;;;13.20;80.10;20.70;99366.00;;;;5073095;28;20524;-70
2021/05/04 04:48:19;;;;;;;4.70;3.60;;;13.30;80.10;20.60;99380.00;;;;5072699;28;20217;-69
2021/05/04 04:50:45;;;;;;;5.10;4.03;;;13.30;80.10;20.70;99372.00;;;;5055514;28;20174;-69
2021/05/04 04:53:11;;;;;;;4.70;3.40;;;13.20;80.10;20.80;99370.00;;;;5073439;28;20716;-69
2021/05/04 04:55:36;;;;;;;5.23;4.00;;;13.20;80.00;20.70;99360.00;;;;5071392;28;20268;-69
2021/05/04 04:58:02;;;;;;;4.80;3.53;;;13.20;80.10;20.60;99353.00;;;;5055246;28;20276;-69
2021/05/04 05:00:28;;;;;;;5.63;3.73;;;13.30;80.20;20.60;99359.00;;;;5054733;28;20281;-69
2021/05/04 05:02:54;;;;;;;5.43;4.33;;;13.30;80.10;20.70;99351.00;;;;5055487;28;20613;-70
2021/05/04 05:05:19;;;;;;;4.87;3.60;;;13.30;80.10;20.70;99348.00;;;;5071565;28;20280;-69
2021/05/04 05:07:45;;;;;;;4.90;3.90;;;13.20;80.00;20.70;99341.00;;;;5037746;28;20217;-69
2021/05/04 05:10:11;;;;;;;6.07;4.10;;;13.20;79.90;20.70;99345.00;;;;5054886;28;20177;-70
2021/05/04 05:12:37;;;;;;;4.90;3.70;;;13.20;80.10;20.80;99344.00;;;;5055224;28;20265;-69
2021/05/04 05:15:05;;;;;;;4.93;3.83;;;13.20;80.10;20.80;99344.00;;;;5071405;28;20857;-69
2021/05/04 05:17:30;;;;;;;5.43;3.80;;;13.20;80.00;20.70;99350.00;;;;5071542;28;20452;-69
2021/05/04 05:19:58;;;;;;;5.63;3.90;;;13.20;80.00;20.80;99346.00;;;;5072367;28;20785;-69
2021/05/04 05:22:24;;;;;;;5.77;4.33;;;13.20;79.90;20.80;99345.00;;;;5072773;28;20311;-69
2021/05/04 05:24:49;;;;;;;5.27;4.07;;;13.20;79.90;20.70;99340.00;;;;5038510;28;20485;-69
2021/05/04 05:27:15;;;;;;;5.67;4.20;;;13.20;80.90;20.70;99339.00;;;;5054832;28;20543;-69
2021/05/04 05:29:41;;;;;;;5.60;3.80;;;13.20;79.90;20.80;99338.00;;;;5054863;28;20181;-70
2021/05/04 05:32:07;;;;;;;5.97;4.23;;;13.20;79.90;20.70;99338.00;;;;5054437;28;20220;-69
2021/05/04 05:34:33;;;;;;;5.90;4.47;;;13.20;80.00;20.70;99340.00;;;;5054254;28;20185;-69
2021/05/04 05:36:58;;;;;;;4.43;3.43;;;13.20;80.00;20.50;99340.00;;;;5054117;28;20615;-69
2021/05/04 05:39:24;;;;;;;5.47;3.57;;;13.20;80.00;20.70;99339.00;;;;5054311;28;20406;-69
2021/05/04 05:41:50;;;;;;;5.27;3.77;;;13.20;80.00;20.60;99315.00;;;;5072354;28;20193;-69
2021/05/04 05:44:16;;;;;;;5.57;3.90;;;13.20;80.00;20.60;99335.00;;;;5070464;28;20641;-69
2021/05/04 05:46:41;;;;;;;5.70;3.83;;;13.20;80.00;20.70;99328.00;;;;5053559;28;20209;-69
2021/05/04 05:49:07;;;;;;;4.83;3.80;;;13.20;80.00;20.60;99327.00;;;;5054183;28;20177;-70
2021/05/04 05:51:33;;;;;;;4.87;3.33;;;13.20;80.00;20.70;99333.00;;;;5035007;28;20374;-69
2021/05/04 05:53:59;;;;;;;5.47;3.83;;;13.20;80.00;20.80;99324.00;;;;5051695;28;20433;-69
2021/05/04 05:56:25;;;;;;;5.43;3.70;;;13.20;80.00;20.60;99327.00;;;;5071011;28;20178;-69
2021/05/04 05:58:51;;;;;;;5.60;3.43;;;13.20;80.00;20.60;99319.00;;;;5069670;28;20191;-69
2021/05/04 06:01:16;;;;;;;5.83;3.97;;;13.20;80.00;20.60;99312.00;;;;5070988;28;20850;-69
2021/05/04 06:03:42;;;;;;;4.90;3.27;;;13.20;80.00;20.60;99317.00;;;;5069759;28;20204;-69
2021/05/04 06:06:08;;;;;;;5.37;3.57;;;13.20;80.00;20.50;99315.00;;;;5070015;28;20182;-69
2021/05/04 06:08:34;;;;;;;5.93;3.77;;;13.20;80.00;20.40;99317.00;;;;5069770;28;20808;-69
2021/05/04 06:10:59;;;;;;;5.20;3.80;;;13.20;80.10;20.50;99278.00;;;;5068908;28;20188;-70
2021/05/04 06:13:25;;;;;;;4.50;3.50;;;13.20;80.10;20.40;99295.00;;;;5069866;28;20201;-69
2021/05/04 06:15:51;;;;;;;5.20;3.93;;;13.20;80.10;20.40;99308.00;;;;5052587;28;20189;-70
2021/05/04 06:18:17;;;;;;;5.03;3.73;;;13.20;80.00;20.60;99310.00;;;;5052339;28;20209;-69
2021/05/04 06:20:42;;;;;;;5.27;3.77;;;13.20;80.10;20.40;99305.00;;;;5071037;28;20470;-71
2021/05/04 06:23:08;;;;;;;5.20;3.47;;;13.20;80.10;20.40;99295.00;;;;5069350;28;20267;-69
2021/05/04 06:25:34;;;;;;;4.67;3.50;;;13.20;80.10;20.50;99307.00;;;;5051844;28;20186;-70
2021/05/04 06:28:04;;;;;;;4.93;3.80;;;13.20;80.10;20.40;99293.00;;;;5071353;28;20266;-70
2021/05/04 06:30:34;;;;;;;4.50;3.13;;;13.20;80.20;20.40;99288.00;;;;5054239;28;20661;-69
2021/05/04 06:33:09;;;;;;;5.07;3.47;;;13.20;80.20;20.40;99268.00;;;;5070071;28;20494;-70
2021/05/04 06:35:37;;;;;;;5.63;3.70;;;13.20;80.20;20.60;99287.00;;;;5053798;28;20493;-70
2021/05/04 06:38:03;;;;;;;4.97;3.80;;;13.20;80.20;20.60;99289.00;;;;5037399;28;20990;-69
2021/05/04 06:40:29;;;;;;;5.37;3.33;;;13.20;80.30;20.40;99282.00;;;;5070191;28;20410;-69
2021/05/04 06:42:55;;;;;;;4.53;2.80;;;13.20;80.30;20.40;99288.00;;;;5036823;28;20434;-70
2021/05/04 06:45:24;;;;;;;4.90;3.73;;;13.20;80.30;20.60;99285.00;;;;5054119;28;20406;-71
2021/05/04 06:47:50;;;;;;;4.63;3.40;;;13.20;80.30;20.60;99277.00;;;;5070733;28;20824;-70
2021/05/04 06:50:16;;;;;;;5.27;3.87;;;13.20;80.30;20.70;99269.00;;;;5069944;28;20693;-71
2021/05/04 06:52:41;;;;;;;4.27;3.20;;;13.20;80.30;20.60;99278.00;;;;5019600;28;20667;-70
2021/05/04 06:55:08;;;;;;;4.63;3.33;;;13.20;80.40;20.60;99279.00;;;;5036888;28;20185;-70
2021/05/04 06:57:34;;;;;;;5.03;3.60;;;13.20;80.40;20.70;99278.00;;;;5069526;28;20196;-70
2021/05/04 06:59:59;;;;;;;4.80;3.53;;;13.20;80.40;20.60;99280.00;;;;5068813;28;20443;-70
2021/05/04 07:02:26;;;;;;;4.47;3.27;;;13.20;80.40;20.60;99269.00;;;;5035824;28;20670;-70
2021/05/04 07:04:52;;;;;;;4.60;3.17;;;13.20;80.40;20.80;99270.00;;;;5052646;28;20216;-70
2021/05/04 07:07:17;;;;;;;5.50;3.33;;;13.20;80.50;20.60;99264.00;;;;5068949;28;20511;-70
2021/05/04 07:09:44;;;;;;;4.87;3.30;;;13.20;80.40;20.60;99276.00;;;;5052860;28;20614;-71
2021/05/04 07:12:10;;;;;;;5.07;3.70;;;13.20;80.50;20.70;99268.00;;;;5069221;28;20566;-69
2021/05/04 07:14:38;;;;;;;4.83;3.60;;;13.20;80.50;20.80;99270.00;;;;5052326;28;20920;-71
2021/05/04 07:17:04;;;;;;;5.70;3.37;;;13.20;80.50;20.70;99259.00;;;;5068726;28;20422;-70
2021/05/04 07:19:30;;;;;;;4.50;3.23;;;13.20;80.60;20.80;99256.00;;;;5052797;28;20485;-69
2021/05/04 07:21:56;;;;;;;5.10;3.30;;;13.20;80.60;20.70;99256.00;;;;5069050;28;20563;-70
2021/05/04 07:24:22;;;;;;;4.77;3.20;;;13.20;80.60;20.80;99254.00;;;;5069463;28;20407;-70
2021/05/04 07:26:48;;;;;;;4.30;2.73;;;13.20;80.60;20.80;99254.00;;;;5052452;28;20895;-71
2021/05/04 07:29:13;;;;;;;4.83;3.53;;;13.20;80.50;20.70;99264.00;;;;5051799;28;20479;-70
2021/05/04 07:31:41;;;;;;;4.47;3.13;;;13.20;80.60;20.90;99247.00;;;;5068858;28;20233;-69
2021/05/04 07:34:07;;;;;;;4.73;2.97;;;13.20;80.60;20.90;99259.00;;;;5052674;28;20185;-69
2021/05/04 07:36:32;;;;;;;5.43;3.40;;;13.20;80.60;20.70;99260.00;;;;5069888;28;20450;-69
2021/05/04 07:38:58;;;;;;;4.93;3.60;;;13.20;80.60;20.80;99254.00;;;;5051940;28;20181;-69
2021/05/04 07:41:24;;;;;;;4.50;3.07;;;13.20;80.60;20.90;99249.00;;;;5036040;28;20193;-70
2021/05/04 07:43:50;;;;;;;4.73;3.00;;;13.20;80.70;20.80;99231.00;;;;5067954;28;20272;-70
2021/05/04 07:46:16;;;;;;;4.87;3.43;;;13.20;80.70;20.70;99242.00;;;;5035480;28;20181;-71
2021/05/04 07:48:41;;;;;;;4.50;3.57;;;13.20;80.70;20.90;99234.00;;;;5068875;28;20212;-70
2021/05/04 07:51:08;;;;;;;5.20;3.23;;;13.20;80.70;20.80;99224.00;;;;5068786;28;20779;-70
2021/05/04 07:53:33;;;;;;;4.50;2.90;;;13.20;80.70;20.90;99236.00;;;;5068599;28;20211;-70
2021/05/04 07:55:59;;;;;;;5.00;3.47;;;13.20;80.80;20.90;99225.00;;;;5051524;28;20793;-71
2021/05/04 07:58:25;;;;;;;4.83;3.20;;;13.20;80.80;20.90;99226.00;;;;5068755;28;20670;-70
2021/05/04 08:00:51;;;;;;;4.93;3.50;;;13.20;80.80;20.80;99225.00;;;;5030296;28;20716;-70
2021/05/04 08:03:16;;;;;;;5.50;3.00;;;13.20;80.80;20.80;99224.00;;;;5051144;28;20266;-70
2021/05/04 08:05:42;;;;;;;4.70;3.33;;;13.20;80.80;20.70;99246.00;;;;5068597;28;20186;-70
2021/05/04 08:08:13;;;;;;;4.90;3.73;;;13.20;80.80;20.90;99217.00;;;;5067211;28;20287;-71
2021/05/04 08:10:40;;;;;;;4.80;3.50;;;13.20;80.90;20.90;99225.00;;;;5036082;28;20173;-70
2021/05/04 08:13:06;;;;;;;5.20;3.40;;;13.20;80.80;20.90;99214.00;;;;5069384;28;20466;-70
2021/05/04 08:15:32;;;;;;;4.43;3.37;;;13.20;80.80;20.80;99202.00;;;;5050290;28;20789;-70
2021/05/04 08:18:04;;;;;;;4.90;3.50;;;13.20;81.70;20.70;99204.00;;;;5044917;28;20562;-70
2021/05/04 08:20:32;;;;;;;4.77;3.20;;;13.20;80.90;20.80;99207.00;;;;5032371;28;20822;-70
2021/05/04 08:22:59;;;;;;;4.70;3.43;;;13.20;80.90;21.00;99198.00;;;;5030174;28;20443;-71
2021/05/04 08:25:25;;;;;;;5.43;3.90;;;13.20;80.90;20.80;99200.00;;;;5014971;28;20464;-71
2021/05/04 08:27:51;;;;;;;3.93;2.57;;;13.20;81.00;21.00;99190.00;;;;5047745;28;20912;-71
2021/05/04 08:30:17;;;;;;;4.43;3.23;;;13.20;80.90;20.90;99184.00;;;;5030438;28;20190;-70
2021/05/04 08:32:43;;;;;;;4.60;3.57;;;13.20;80.90;20.80;99190.00;;;;5014590;28;20522;-71
2021/05/04 08:35:10;;;;;;;4.13;3.00;;;13.20;80.90;21.00;99191.00;;;;5030479;28;20436;-70
2021/05/04 08:37:35;;;;;;;4.60;3.20;;;13.20;80.90;21.00;99197.00;;;;5014717;28;20561;-71
2021/05/04 08:40:02;;;;;;;5.13;3.50;;;13.20;81.00;21.00;99153.00;;;;5031102;28;20901;-71
2021/05/04 08:42:28;;;;;;;4.30;2.80;;;13.20;81.00;20.90;99188.00;;;;5031320;28;20209;-70
2021/05/04 08:44:53;;;;;;;4.77;3.40;;;13.20;81.00;20.90;99153.00;;;;5029142;28;20423;-70
2021/05/04 08:47:20;;;;;;;5.83;3.30;;;13.20;81.00;20.90;99170.00;;;;5014265;28;20217;-70
2021/05/04 08:49:47;;;;;;;7.67;3.73;;;13.20;81.00;20.80;99170.00;;;;5047560;28;20174;-70
2021/05/04 08:52:12;;;;;;;4.90;3.17;;;13.20;81.00;20.80;99179.00;;;;5030640;28;20490;-71
2021/05/04 08:54:38;;;;;;;4.00;2.40;;;13.30;81.10;20.80;99167.00;;;;5021886;28;20492;-71
2021/05/04 08:57:04;;;;;;;4.30;3.17;;;13.30;81.20;20.70;99173.00;;;;5050934;28;20247;-70
2021/05/04 08:59:30;;;;;;;5.00;3.03;;;13.20;81.10;20.90;99165.00;;;;5065688;28;20700;-71
2021/05/04 09:01:56;;;;;;;5.30;3.50;;;13.30;81.10;20.80;99151.00;;;;5067224;28;20458;-71
2021/05/04 09:04:39;;;;;;;4.60;3.10;;;13.30;81.20;20.80;99148.00;;;;5067271;28;20445;-72
2021/05/04 09:07:26;;;;;;;4.30;3.10;;;13.30;81.20;20.90;99155.00;;;;5020094;28;20213;-70
2021/05/04 09:12:46;;;;;;;4.43;3.37;;;13.30;81.20;21.00;99147.00;;;;5052857;28;20445;-70
2021/05/04 09:21:28;;;;;;;4.57;2.97;;;13.30;81.30;21.00;99124.00;;;;5067250;28;20448;-71
2021/05/04 09:23:54;;;;;;;4.80;2.67;;;13.30;81.30;20.80;99137.00;;;;5052417;28;20459;-71
2021/05/04 09:26:34;;;;;;;4.27;2.90;;;13.30;81.30;20.80;99127.00;;;;5068890;28;20471;-71
2021/05/04 09:29:07;;;;;;;5.13;3.30;;;13.30;81.30;20.90;99119.00;;;;5053845;28;20192;-71
2021/05/04 09:31:36;;;;;;;4.20;2.67;;;13.30;81.30;21.00;99130.00;;;;5037881;28;20535;-71
2021/05/04 09:34:12;;;;;;;4.50;3.00;;;13.30;81.30;21.00;99095.00;;;;5072361;28;20827;-72
2021/05/04 09:36:51;;;;;;;5.60;2.97;;;13.30;81.40;21.00;99116.00;;;;5055544;28;20460;-71
2021/05/04 09:39:28;;;;;;;4.63;3.03;;;13.30;81.30;21.00;99101.00;;;;5070879;28;20454;-71
2021/05/04 09:41:56;;;;;;;5.87;2.80;;;13.30;81.30;21.10;99111.00;;;;5054601;28;20945;-71
2021/05/04 09:44:48;;;;;;;6.90;3.07;;;13.30;81.40;20.90;99110.00;;;;5054389;28;20460;-71
2021/05/04 09:47:23;;;;;;;5.43;3.17;;;13.30;81.30;20.70;99100.00;;;;5023567;28;20483;-71
2021/05/04 09:49:49;;;;;;;4.03;2.77;;;13.40;81.50;20.90;99100.00;;;;5037773;28;20448;-71
2021/05/04 09:55:07;;;;;;;4.10;2.80;;;13.40;81.50;21.00;99079.00;;;;5054675;28;20458;-71
2021/05/04 09:57:36;;;;;;;4.37;2.97;;;13.40;81.50;20.90;99100.00;;;;5054384;28;20886;-71
2021/05/04 10:00:07;;;;;;;5.00;3.00;;;13.40;81.50;21.00;99086.00;;;;5070447;28;20414;-71
2021/05/04 10:02:34;;;;;;;4.37;2.77;;;13.40;81.50;21.10;99092.00;;;;5054078;28;20422;-70
2021/05/04 10:05:01;;;;;;;4.40;2.60;;;13.40;81.50;21.10;99087.00;;;;5053745;28;20459;-71
2021/05/04 10:07:29;;;;;;;4.63;3.10;;;13.40;81.50;21.00;99089.00;;;;5070561;28;20476;-71
2021/05/04 10:09:55;;;;;;;4.30;2.53;;;13.40;81.50;21.20;99063.00;;;;5053774;28;20416;-71
2021/05/04 10:12:21;;;;;;;4.40;2.93;;;13.40;81.40;21.20;99039.00;;;;5036854;28;20464;-71
2021/05/04 10:14:48;;;;;;;4.50;2.80;;;13.40;81.50;21.20;99058.00;;;;5053725;28;20280;-73
2021/05/04 10:17:16;;;;;;;4.37;2.80;;;13.40;81.50;21.00;99056.00;;;;5020311;28;20275;-70
2021/05/04 10:19:42;;;;;;;4.43;2.97;;;13.40;81.50;21.10;99052.00;;;;5070065;28;20489;-70
2021/05/04 10:22:08;;;;;;;4.20;2.80;;;13.40;81.50;21.20;99027.00;;;;5071847;28;20554;-71
2021/05/04 10:24:33;;;;;;;4.70;2.93;;;13.40;81.50;21.40;99038.00;;;;5053521;28;20185;-72
2021/05/04 10:27:04;;;;;;;4.27;2.67;;;13.40;81.50;21.10;99020.00;;;;5069896;28;20284;-71
2021/05/04 10:29:29;;;;;;;4.20;2.70;;;13.40;81.50;21.20;99027.00;;;;5037404;28;20185;-70
2021/05/04 10:31:57;;;;;;;4.43;2.87;;;13.40;81.50;21.00;99022.00;;;;5052512;28;20434;-71
2021/05/04 10:34:23;;;;;;;4.53;3.00;;;13.40;81.40;21.30;99030.00;;;;5070135;28;20204;-71
2021/05/04 10:36:50;;;;;;;4.30;2.90;;;13.40;81.40;21.10;99022.00;;;;5068916;28;20516;-71
2021/05/04 10:39:42;;;;;;;4.43;2.90;;;13.40;81.40;21.20;99011.00;;;;5037024;28;20189;-70
2021/05/04 10:42:16;;;;;;;4.37;2.87;;;13.40;81.40;21.30;99015.00;;;;5053830;28;20447;-71
2021/05/04 10:44:56;;;;;;;4.00;2.40;;;13.40;81.40;21.20;99022.00;;;;5069420;28;20427;-71
2021/05/04 10:47:41;;;;;;;4.73;2.90;;;13.40;81.30;21.20;99021.00;;;;5071237;28;20992;-71
2021/05/04 10:50:11;;;;;;;4.20;2.50;;;13.50;81.40;21.30;99017.00;;;;5069635;28;20549;-71
2021/05/04 10:52:54;;;;;;;6.00;2.80;;;13.50;81.30;21.10;99004.00;;;;5037316;28;20468;-71
2021/05/04 10:55:21;;;;;;;4.43;2.60;;;13.50;81.40;21.30;98991.00;;;;5069444;28;20414;-71
2021/05/04 10:58:08;;;;;;;4.00;2.40;;;13.50;81.40;21.30;99004.00;;;;5053011;28;20437;-71
2021/05/04 11:00:53;;;;;;;5.00;2.67;;;13.50;81.30;21.30;98995.00;;;;5070520;28;20424;-72
2021/05/04 11:03:34;;;;;;;3.63;2.20;;;13.50;81.20;21.30;98995.00;;;;5069110;28;20455;-71
2021/05/04 11:06:04;;;;;;;4.63;2.67;;;13.50;81.20;21.30;98986.00;;;;5070298;28;20930;-71